Pleasant Valley, NY (12569)

3:20 PM EDT on August 29, 2015 (GMT -0400)
APRSWXNET | | Change Station
CLOSE
Current Station
Personal Weather Station
Location: Poughkeepsie, NY
Elevation: 423 ft
Nearby Weather Stations

Elev 423 ft 41.71 °N, 73.83 °W | Updated 21 minutes ago

Partly Cloudy
Partly Cloudy
81 °F
Feels Like 82 °F
N
0
Wind Variable Wind from SE
Gusts 0.0 mph

Today
High -- | Low -- °F
--% Chance of Precip.
Yesterday
High -- | Low -- °F
Precip. -- in
6:17 AM 7:33 PM
Full, 100% visible
Pressure 30.11 in
Visibility 10.0 miles
Clouds Few 6000 ft
Heat Index 82 °F
Dew Point 61 °F
Humidity 51%
Rainfall in
Snow Depth Not available.
UV 7 out of 12
Pollen 9.30 out of 12
Air Quality Not available.
Flu Activity Not available.
METAR KPOU 291853Z 35004KT 10SM FEW060 29/13 A3012 RMK AO2 SLP196 T02890133
Pressure 30.11 in
Visibility 10.0 miles
Clouds Few 6000 ft
Heat Index 82 °F
Dew Point 61 °F
Humidity 51%
Rainfall in
Snow Depth Not available.
UV 7 out of 12
Pollen 9.30 out of 12
Air Quality Not available.
Flu Activity Not available.
METAR KPOU 291853Z 35004KT 10SM FEW060 29/13 A3012 RMK AO2 SLP196 T02890133

10-Day Weather Forecast

×

Almanac

Astronomy

Aug. 29, 2015 Rise Set
Actual Time
Civil Twilight
Nautical Twilight
Astronomical Twilight
Moon
Length of Visible Light
Length of Day
Tomorrow will be .
, % of the Moon is Illuminated

Today's Extremes

State Highs State Lows

Community

WunderPhotos

Upload Photos

1,850,780 photos uploaded!

WunderBlogs® & News

Nearby

Air Quality

  Air Quality AQ Index Pollutant
Not available.

Snow Depth

Station Depth Elevation

Earthquake Activity

City Distance Mag. Time & Date
Minimum magnitude displayed is 2.5.

Coastal Water Temperatures

Place Temperature

Stations

Nearby Weather Stations

Station Location Temp. Windchill Dew Point Humidity Wind Precip. Elev Updated Type